createdAt,value
2019-02-23T00:01:26.066Z,101196.57
2019-02-23T00:03:57.373Z,101194.64
2019-02-23T00:06:30.045Z,101194.41
2019-02-23T00:09:01.619Z,101197.28
2019-02-23T00:11:34.541Z,101199.50
2019-02-23T00:14:05.804Z,101200.16
2019-02-23T00:16:37.092Z,101198.03
2019-02-23T00:19:08.314Z,101203.80
2019-02-23T00:21:39.667Z,101203.61
2019-02-23T00:24:10.983Z,101216.20
2019-02-23T00:26:42.230Z,101217.94
2019-02-23T00:29:13.615Z,101223.72
2019-02-23T00:31:44.927Z,101228.36
2019-02-23T00:34:16.228Z,101228.23
2019-02-23T00:36:47.652Z,101236.45
2019-02-23T00:39:18.932Z,101241.86
2019-02-23T00:41:50.224Z,101245.22
2019-02-23T00:44:21.556Z,101242.78
2019-02-23T00:46:52.804Z,101249.81
2019-02-23T00:49:24.089Z,101253.35
2019-02-23T00:51:55.365Z,101253.40
2019-02-23T00:54:26.693Z,101256.23
2019-02-23T00:56:59.653Z,101258.73
2019-02-23T00:59:30.889Z,101260.55
2019-02-23T01:02:02.099Z,101268.33
2019-02-23T01:04:33.486Z,101262.05
2019-02-23T01:07:04.870Z,101261.45
2019-02-23T01:09:36.186Z,101267.44
2019-02-23T01:12:07.625Z,101268.95
2019-02-23T01:14:38.892Z,101274.27
2019-02-23T01:17:10.341Z,101274.19
2019-02-23T01:19:47.903Z,101280.70
2019-02-23T01:22:15.655Z,101277.17
2019-02-23T01:24:46.786Z,101282.27
2019-02-23T01:27:19.255Z,101274.67
2019-02-23T01:29:50.728Z,101290.41
2019-02-23T01:32:22.069Z,101298.61
2019-02-23T01:34:53.383Z,101295.39
2019-02-23T01:37:24.912Z,101299.16
2019-02-23T01:39:56.219Z,101299.05
2019-02-23T01:42:27.506Z,101307.23
2019-02-23T01:44:58.705Z,101307.12
2019-02-23T01:47:30.031Z,101310.83
2019-02-23T01:50:01.493Z,101317.50
2019-02-23T01:52:32.813Z,101317.30
2019-02-23T01:55:04.225Z,101332.72
2019-02-23T01:57:35.502Z,101328.55
2019-02-23T02:00:10.028Z,101340.52
2019-02-23T02:02:41.299Z,101340.77
2019-02-23T02:05:12.878Z,101353.84
2019-02-23T02:07:44.202Z,101351.23
2019-02-23T02:10:15.509Z,101354.83
2019-02-23T02:12:46.716Z,101362.70
2019-02-23T02:15:18.082Z,101366.47
2019-02-23T02:17:49.671Z,101372.53
2019-02-23T02:20:21.100Z,101373.86
2019-02-23T02:22:52.320Z,101380.30
2019-02-23T02:25:23.521Z,101377.73
2019-02-23T02:27:54.763Z,101379.96
2019-02-23T02:30:25.996Z,101377.95
2019-02-23T02:32:57.410Z,101384.90
2019-02-23T02:35:28.709Z,101395.04
2019-02-23T02:38:00.545Z,101398.05
2019-02-23T02:40:32.048Z,101396.16
2019-02-23T02:43:03.356Z,101403.39
2019-02-23T02:45:34.670Z,101401.30
2019-02-23T02:48:05.942Z,101399.27
2019-02-23T02:50:37.266Z,101399.34
2019-02-23T02:53:08.551Z,101405.58
2019-02-23T02:55:39.900Z,101406.94
2019-02-23T02:58:11.151Z,101419.34
2019-02-23T03:00:42.637Z,101415.09
2019-02-23T03:03:13.962Z,101425.90
2019-02-23T03:05:45.205Z,101431.20
2019-02-23T03:08:16.462Z,101431.39
2019-02-23T03:10:47.709Z,101440.25
2019-02-23T03:13:18.989Z,101438.23
2019-02-23T03:15:50.461Z,101444.68
2019-02-23T03:18:21.748Z,101449.56
2019-02-23T03:20:53.187Z,101453.47
2019-02-23T03:23:24.430Z,101445.36
2019-02-23T03:25:55.830Z,101460.55
2019-02-23T03:28:27.126Z,101455.80
2019-02-23T03:30:58.439Z,101454.03
2019-02-23T03:33:29.726Z,101462.44
2019-02-23T03:36:01.200Z,101472.82
2019-02-23T03:38:32.753Z,101469.60
2019-02-23T03:41:04.155Z,101468.05
2019-02-23T03:43:35.429Z,101479.43
2019-02-23T03:46:06.731Z,101473.16
2019-02-23T03:48:37.920Z,101475.62
2019-02-23T03:51:09.213Z,101486.20
2019-02-23T03:53:40.518Z,101487.84
2019-02-23T03:56:11.961Z,101489.55
2019-02-23T03:58:43.290Z,101489.73
2019-02-23T04:01:14.657Z,101489.95
2019-02-23T04:03:45.822Z,101482.00
2019-02-23T04:06:17.191Z,101491.75
2019-02-23T04:08:48.601Z,101491.80
2019-02-23T04:11:19.938Z,101499.27
2019-02-23T04:13:51.379Z,101504.20
2019-02-23T04:16:22.571Z,101498.69
2019-02-23T04:18:53.883Z,101507.13
2019-02-23T04:21:25.136Z,101512.73
2019-02-23T04:23:56.379Z,101515.34
2019-02-23T04:26:27.785Z,101519.48
2019-02-23T04:28:59.091Z,101520.12
2019-02-23T04:31:30.523Z,101527.38
2019-02-23T04:34:01.874Z,101519.73
2019-02-23T04:36:33.087Z,101527.75
2019-02-23T04:39:05.813Z,101533.41
2019-02-23T04:41:36.703Z,101532.13
2019-02-23T04:44:08.335Z,101528.72
2019-02-23T04:46:39.656Z,101531.33
2019-02-23T04:49:11.003Z,101546.27
2019-02-23T04:51:42.343Z,101548.37
2019-02-23T04:54:14.044Z,101552.58
2019-02-23T04:56:45.400Z,101561.94
2019-02-23T04:59:16.709Z,101560.34
2019-02-23T05:01:48.009Z,101571.77
2019-02-23T05:04:19.448Z,101570.03
2019-02-23T05:06:50.852Z,101578.66
2019-02-23T05:09:22.145Z,101579.14
2019-02-23T05:11:53.462Z,101580.91
2019-02-23T05:14:24.751Z,101586.34
2019-02-23T05:16:56.120Z,101578.59
2019-02-23T05:19:27.407Z,101573.88
2019-02-23T05:21:58.684Z,101585.44
2019-02-23T05:24:30.156Z,101579.38
2019-02-23T05:27:01.606Z,101588.38
2019-02-23T05:29:32.982Z,101587.84
2019-02-23T05:32:04.294Z,101588.71
2019-02-23T05:34:36.137Z,101598.95
2019-02-23T05:37:07.659Z,101598.31
2019-02-23T05:39:40.984Z,101598.97
2019-02-23T05:42:12.280Z,101607.19
2019-02-23T05:44:43.604Z,101607.00
2019-02-23T05:47:15.073Z,101604.96
2019-02-23T05:49:46.380Z,101621.62
2019-02-23T05:52:17.893Z,101620.13
2019-02-23T05:54:49.242Z,101614.19
2019-02-23T05:57:20.624Z,101627.10
2019-02-23T05:59:52.044Z,101623.55
2019-02-23T06:02:23.525Z,101629.22
2019-02-23T06:04:54.939Z,101635.81
2019-02-23T06:07:26.315Z,101635.23
2019-02-23T06:09:57.811Z,101630.79
2019-02-23T06:12:29.160Z,101630.88
2019-02-23T06:15:00.613Z,101625.77
2019-02-23T06:17:32.945Z,101620.91
2019-02-23T06:20:05.661Z,101625.45
2019-02-23T06:22:37.048Z,101636.14
2019-02-23T06:25:09.273Z,101641.41
2019-02-23T06:27:40.662Z,101641.70
2019-02-23T06:30:13.208Z,101640.64
2019-02-23T06:32:47.431Z,101646.96
2019-02-23T06:35:18.855Z,101652.30
2019-02-23T06:37:50.385Z,101653.86
2019-02-23T06:40:21.966Z,101648.42
2019-02-23T06:42:53.368Z,101666.32
2019-02-23T06:45:25.766Z,101664.48
2019-02-23T06:47:57.175Z,101659.09
2019-02-23T06:50:28.789Z,101659.73
2019-02-23T06:53:00.198Z,101663.52
2019-02-23T06:55:31.497Z,101661.73
2019-02-23T06:58:04.917Z,101667.59
2019-02-23T07:00:36.293Z,101666.82
2019-02-23T07:03:07.672Z,101657.36
2019-02-23T07:05:39.088Z,101664.53
2019-02-23T07:08:10.527Z,101661.15
2019-02-23T07:10:41.866Z,101668.89
2019-02-23T07:13:13.241Z,101661.02
2019-02-23T07:15:44.649Z,101666.14
2019-02-23T07:18:17.680Z,101665.52
2019-02-23T07:20:49.019Z,101668.07
2019-02-23T07:23:20.431Z,101666.42
2019-02-23T07:25:54.183Z,101665.09
2019-02-23T07:28:25.593Z,101663.26
2019-02-23T07:30:57.124Z,101656.44
2019-02-23T07:33:32.942Z,101662.64
2019-02-23T07:36:01.428Z,101666.89
2019-02-23T07:38:32.753Z,101667.55
2019-02-23T07:41:06.815Z,101669.12
2019-02-23T07:43:38.223Z,101660.50
2019-02-23T07:46:09.605Z,101675.80
2019-02-23T07:48:40.988Z,101683.58
2019-02-23T07:51:12.361Z,101679.58
2019-02-23T07:53:43.751Z,101682.05
2019-02-23T07:56:15.239Z,101680.74
2019-02-23T07:58:46.671Z,101691.59
2019-02-23T08:01:19.020Z,101693.47
2019-02-23T08:03:50.600Z,101694.95
2019-02-23T08:06:22.078Z,101710.38
2019-02-23T08:08:53.510Z,101707.88
2019-02-23T08:11:24.820Z,101690.27
2019-02-23T08:13:56.319Z,101687.05
2019-02-23T08:16:27.715Z,101705.00
2019-02-23T08:18:59.499Z,101713.60
2019-02-23T08:21:31.021Z,101721.66
2019-02-23T08:24:02.259Z,101723.45
2019-02-23T08:26:33.595Z,101726.28
2019-02-23T08:29:05.043Z,101730.80
2019-02-23T08:31:36.727Z,101731.11
2019-02-23T08:34:08.020Z,101742.28
2019-02-23T08:36:39.543Z,101735.95
2019-02-23T08:39:11.074Z,101734.50
2019-02-23T08:41:43.350Z,101739.23
2019-02-23T08:44:15.101Z,101744.88
2019-02-23T08:46:47.071Z,101735.85
2019-02-23T08:49:18.534Z,101746.41
2019-02-23T08:51:50.033Z,101748.75
2019-02-23T08:54:21.483Z,101743.84
2019-02-23T08:56:55.276Z,101738.96
2019-02-23T08:59:27.179Z,101743.14
2019-02-23T09:01:58.641Z,101745.23
2019-02-23T09:04:29.906Z,101739.11
2019-02-23T09:07:01.286Z,101741.52
2019-02-23T09:09:32.610Z,101749.22
2019-02-23T09:12:03.964Z,101750.16
2019-02-23T09:14:35.320Z,101749.38
2019-02-23T09:17:06.691Z,101753.13
2019-02-23T09:19:38.145Z,101759.31
2019-02-23T09:22:09.583Z,101748.83
2019-02-23T09:24:40.919Z,101752.55
2019-02-23T09:27:12.247Z,101755.32
2019-02-23T09:29:48.068Z,101757.98
2019-02-23T09:32:19.356Z,101753.10
2019-02-23T09:34:50.724Z,101741.44
2019-02-23T09:37:23.652Z,101742.24
2019-02-23T09:39:54.965Z,101748.69
2019-02-23T09:42:26.543Z,101753.00
2019-02-23T09:44:57.981Z,101754.25
2019-02-23T09:47:29.267Z,101758.45
2019-02-23T09:50:01.145Z,101751.50
2019-02-23T09:52:32.514Z,101755.17
2019-02-23T09:55:03.904Z,101747.47
2019-02-23T09:57:35.312Z,101745.65
2019-02-23T10:00:11.883Z,101747.72
2019-02-23T10:02:43.305Z,101755.00
2019-02-23T10:05:16.657Z,101751.41
2019-02-23T10:07:48.008Z,101749.39
2019-02-23T10:10:19.317Z,101744.10
2019-02-23T10:12:50.792Z,101749.37
2019-02-23T10:15:22.152Z,101750.89
2019-02-23T10:17:53.531Z,101753.16
2019-02-23T10:20:24.947Z,101751.16
2019-02-23T10:22:56.397Z,101742.78
2019-02-23T10:25:29.056Z,101754.40
2019-02-23T10:28:00.449Z,101755.70
2019-02-23T10:30:34.674Z,101747.17
2019-02-23T10:33:06.036Z,101753.62
2019-02-23T10:35:37.390Z,101752.94
2019-02-23T10:38:08.785Z,101746.98
2019-02-23T10:40:40.071Z,101756.52
2019-02-23T10:43:11.991Z,101758.60
2019-02-23T10:45:43.381Z,101752.17
2019-02-23T10:48:14.759Z,101751.83
2019-02-23T10:50:46.490Z,101749.34
2019-02-23T10:53:17.795Z,101759.56
2019-02-23T10:55:49.120Z,101758.17
2019-02-23T10:58:20.498Z,101760.41
2019-02-23T11:00:51.985Z,101757.00
2019-02-23T11:03:23.543Z,101757.59
2019-02-23T11:05:54.804Z,101760.51
2019-02-23T11:08:26.209Z,101759.39
2019-02-23T11:10:57.491Z,101756.05
2019-02-23T11:13:28.795Z,101760.71
2019-02-23T11:16:00.222Z,101758.60
2019-02-23T11:18:31.700Z,101763.36
2019-02-23T11:21:03.141Z,101763.93
2019-02-23T11:23:43.850Z,101759.27
2019-02-23T11:26:08.959Z,101755.58
2019-02-23T11:28:40.317Z,101758.53
2019-02-23T11:31:11.649Z,101764.08
2019-02-23T11:33:42.964Z,101760.06
2019-02-23T11:36:14.632Z,101762.76
2019-02-23T11:38:46.491Z,101762.98
2019-02-23T11:41:17.711Z,101769.62
2019-02-23T11:43:49.190Z,101769.14
2019-02-23T11:46:20.570Z,101766.43
2019-02-23T11:48:52.146Z,101770.41
2019-02-23T11:51:24.005Z,101767.66
2019-02-23T11:53:55.486Z,101764.42
2019-02-23T11:56:27.321Z,101766.94
2019-02-23T11:58:58.618Z,101765.20
2019-02-23T12:01:29.902Z,101776.27
2019-02-23T12:04:01.281Z,101776.90
2019-02-23T12:06:32.712Z,101787.14
2019-02-23T12:09:04.392Z,101782.88
2019-02-23T12:11:37.616Z,101783.25
2019-02-23T12:14:08.995Z,101781.82
2019-02-23T12:16:40.317Z,101796.78
2019-02-23T12:19:11.892Z,101794.04
2019-02-23T12:21:43.289Z,101803.13
2019-02-23T12:24:16.432Z,101796.39
2019-02-23T12:26:49.900Z,101789.91
2019-02-23T12:29:21.370Z,101808.11
2019-02-23T12:31:52.726Z,101802.72
2019-02-23T12:34:25.261Z,101807.06
2019-02-23T12:37:00.916Z,101805.25
2019-02-23T12:39:35.168Z,101818.20
2019-02-23T12:42:06.705Z,101821.48
2019-02-23T12:44:38.221Z,101829.10
2019-02-23T12:47:12.649Z,101817.86
2019-02-23T12:49:44.307Z,101816.20
2019-02-23T12:52:17.230Z,101824.13
2019-02-23T12:54:48.549Z,101819.80
2019-02-23T12:57:21.402Z,101824.23
2019-02-23T12:59:52.172Z,101816.16
2019-02-23T13:02:24.346Z,101829.78
2019-02-23T13:04:55.733Z,101833.02
2019-02-23T13:07:27.128Z,101835.39
2019-02-23T13:09:58.422Z,101836.42
2019-02-23T13:12:35.642Z,101837.30
2019-02-23T13:15:13.433Z,101833.57
2019-02-23T13:17:53.747Z,101832.02
2019-02-23T13:20:45.070Z,101822.18
2019-02-23T13:23:28.114Z,101833.33
2019-02-23T13:26:00.383Z,101834.58
2019-02-23T13:28:56.502Z,101842.89
2019-02-23T13:31:36.686Z,101834.73
2019-02-23T13:34:29.468Z,101842.48
2019-02-23T13:37:13.203Z,101841.67
2019-02-23T13:39:50.489Z,101842.64
2019-02-23T13:42:49.152Z,101848.17
2019-02-23T13:45:40.750Z,101842.34
2019-02-23T13:48:33.366Z,101852.84
2019-02-23T13:51:35.211Z,101853.45
2019-02-23T13:54:09.743Z,101849.45
2019-02-23T13:57:02.213Z,101855.77
2019-02-23T13:59:58.903Z,101862.52
2019-02-23T14:02:45.415Z,101864.84
2019-02-23T14:05:38.326Z,101860.74
2019-02-23T14:08:35.296Z,101868.28
2019-02-23T14:11:27.392Z,101871.42
2019-02-23T14:14:02.035Z,101873.33
2019-02-23T14:16:52.388Z,101868.30
2019-02-23T14:19:43.186Z,101871.13
2019-02-23T14:22:23.353Z,101869.44
2019-02-23T14:25:17.529Z,101876.47
2019-02-23T14:28:00.800Z,101873.06
2019-02-23T14:31:01.213Z,101874.08
2019-02-23T14:33:39.187Z,101880.33
2019-02-23T14:36:26.055Z,101882.55
2019-02-23T14:39:20.058Z,101880.55
2019-02-23T14:42:04.942Z,101889.33
2019-02-23T14:44:44.934Z,101884.13
2019-02-23T14:47:40.095Z,101888.00
2019-02-23T14:50:32.560Z,101889.93
2019-02-23T14:53:23.702Z,101896.12
2019-02-23T14:56:10.445Z,101889.45
2019-02-23T14:58:57.479Z,101898.09
2019-02-23T15:01:38.623Z,101888.78
2019-02-23T15:04:30.961Z,101900.13
2019-02-23T15:07:41.613Z,101903.01
2019-02-23T15:10:51.599Z,101909.84
2019-02-23T15:13:49.634Z,101909.13
2019-02-23T15:16:40.769Z,101912.84
2019-02-23T15:19:16.573Z,101915.73
2019-02-23T15:21:51.246Z,101925.25
2019-02-23T15:24:48.912Z,101924.64
2019-02-23T15:27:41.903Z,101927.98
2019-02-23T15:30:35.789Z,101937.91
2019-02-23T15:33:19.497Z,101938.84
2019-02-23T15:36:05.582Z,101946.99
2019-02-23T15:38:46.221Z,101950.52
2019-02-23T15:41:40.636Z,101950.59
2019-02-23T15:44:31.716Z,101956.38
2019-02-23T15:47:09.554Z,101950.03
2019-02-23T15:49:41.517Z,101957.47
2019-02-23T15:52:13.225Z,101961.27
2019-02-23T15:54:45.026Z,101971.44
2019-02-23T15:57:16.572Z,101979.67
2019-02-23T15:59:47.972Z,101982.41
2019-02-23T16:02:19.350Z,101984.20
2019-02-23T16:04:52.809Z,101984.77
2019-02-23T16:07:25.712Z,101989.78
2019-02-23T16:09:57.319Z,101990.28
2019-02-23T16:12:28.791Z,101999.59
2019-02-23T16:15:00.346Z,102000.16
2019-02-23T16:17:31.776Z,101997.44
2019-02-23T16:20:03.054Z,102003.10
2019-02-23T16:22:35.618Z,102010.58
2019-02-23T16:25:07.618Z,102010.58
2019-02-23T16:27:38.998Z,102015.37
2019-02-23T16:30:11.276Z,102002.61
2019-02-23T16:32:42.932Z,102014.80
2019-02-23T16:35:14.717Z,102011.33
2019-02-23T16:37:45.960Z,102017.00
2019-02-23T16:40:17.238Z,102016.46
2019-02-23T16:42:48.638Z,102021.17
2019-02-23T16:45:20.145Z,102024.33
2019-02-23T16:47:51.649Z,102023.94
2019-02-23T16:50:24.029Z,102027.23
2019-02-23T16:52:55.336Z,102021.48
2019-02-23T16:55:26.783Z,102022.66
2019-02-23T16:57:58.150Z,102029.03
2019-02-23T17:00:30.221Z,102025.17
2019-02-23T17:03:01.852Z,102025.88
2019-02-23T17:05:33.198Z,102025.47
2019-02-23T17:08:04.686Z,102025.63
2019-02-23T17:10:35.983Z,102023.75
2019-02-23T17:13:07.440Z,102023.16
2019-02-23T17:15:38.928Z,102029.80
2019-02-23T17:18:10.297Z,102034.80
2019-02-23T17:20:41.723Z,102033.41
2019-02-23T17:23:13.130Z,102029.19
2019-02-23T17:25:45.248Z,102023.30
2019-02-23T17:28:16.622Z,102026.41
2019-02-23T17:30:47.994Z,102024.47
2019-02-23T17:33:19.551Z,102021.97
2019-02-23T17:35:51.542Z,102023.84
2019-02-23T17:38:22.904Z,102021.14
2019-02-23T17:40:54.257Z,102019.00
2019-02-23T17:43:25.661Z,102027.91
2019-02-23T17:45:57.100Z,102025.35
2019-02-23T17:51:00.704Z,102024.27
2019-02-23T17:53:32.123Z,102028.42
2019-02-23T17:56:03.502Z,102021.33
2019-02-23T17:58:35.044Z,102029.67
2019-02-23T18:01:06.716Z,102028.38
2019-02-23T18:03:38.505Z,102023.27
2019-02-23T18:06:10.007Z,102028.20
2019-02-23T18:08:41.384Z,102026.99
2019-02-23T18:11:12.829Z,102028.74
2019-02-23T18:13:44.150Z,102024.91
2019-02-23T18:16:15.576Z,102026.02
2019-02-23T18:18:47.184Z,102024.36
2019-02-23T18:21:18.573Z,102028.52
2019-02-23T18:23:49.969Z,102026.66
2019-02-23T18:26:21.821Z,102028.17
2019-02-23T18:28:53.226Z,102023.05
2019-02-23T18:31:24.723Z,102021.05
2019-02-23T18:33:56.023Z,102018.27
2019-02-23T18:36:27.315Z,102023.16
2019-02-23T18:38:59.699Z,102020.91
2019-02-23T18:41:31.170Z,102031.35
2019-02-23T18:44:02.549Z,102029.95
2019-02-23T18:46:34.034Z,102029.46
2019-02-23T18:49:05.455Z,102021.22
2019-02-23T18:51:37.407Z,102025.86
2019-02-23T18:54:08.873Z,102026.20
2019-02-23T18:56:40.470Z,102031.61
2019-02-23T18:59:11.824Z,102038.62
2019-02-23T19:01:43.168Z,102036.92
2019-02-23T19:04:14.594Z,102032.73
2019-02-23T19:06:46.116Z,102024.83
2019-02-23T19:09:17.639Z,102030.63
2019-02-23T19:11:48.965Z,102030.63
2019-02-23T19:14:20.263Z,102028.97
2019-02-23T19:16:51.608Z,102032.54
2019-02-23T19:19:23.093Z,102033.41
2019-02-23T19:21:54.471Z,102034.48
2019-02-23T19:24:25.791Z,102042.58
2019-02-23T19:26:57.342Z,102040.00
2019-02-23T19:29:28.734Z,102038.48
2019-02-23T19:32:00.142Z,102038.14
2019-02-23T19:34:31.569Z,102041.95
2019-02-23T19:37:02.960Z,102037.77
2019-02-23T19:39:34.348Z,102041.35
2019-02-23T19:42:05.775Z,102044.23
2019-02-23T19:44:37.195Z,102046.14
2019-02-23T19:47:09.897Z,102050.64
2019-02-23T19:49:41.333Z,102043.94
2019-02-23T19:52:14.205Z,102046.20
2019-02-23T19:54:45.635Z,102045.57
2019-02-23T19:57:17.392Z,102044.55
2019-02-23T19:59:48.856Z,102045.72
2019-02-23T20:02:20.336Z,102043.09
2019-02-23T20:04:51.711Z,102038.95
2019-02-23T20:07:23.064Z,102040.53
2019-02-23T20:09:54.337Z,102043.45
2019-02-23T20:12:25.699Z,102043.20
2019-02-23T20:14:57.537Z,102043.58
2019-02-23T20:17:28.961Z,102053.27
2019-02-23T20:20:00.388Z,102049.17
2019-02-23T20:22:31.655Z,102065.62
2019-02-23T20:25:03.168Z,102056.77
2019-02-23T20:27:34.753Z,102063.95
2019-02-23T20:30:09.595Z,102064.19
2019-02-23T20:32:40.939Z,102067.91
2019-02-23T20:35:12.329Z,102063.00
2019-02-23T20:37:43.827Z,102061.41
2019-02-23T20:40:15.208Z,102066.84
2019-02-23T20:42:46.629Z,102065.28
2019-02-23T20:45:17.922Z,102069.63
2019-02-23T20:47:49.399Z,102063.14
2019-02-23T20:50:21.979Z,102064.88
2019-02-23T20:52:53.820Z,102069.91
2019-02-23T20:55:25.268Z,102072.88
2019-02-23T20:57:56.761Z,102074.26
2019-02-23T21:00:28.250Z,102074.08
2019-02-23T21:02:59.671Z,102076.86
2019-02-23T21:05:31.035Z,102082.45
2019-02-23T21:08:02.407Z,102083.45
2019-02-23T21:10:33.831Z,102076.06
2019-02-23T21:13:05.380Z,102080.27
2019-02-23T21:15:36.728Z,102077.39
2019-02-23T21:18:08.136Z,102075.75
2019-02-23T21:20:39.550Z,102086.61
2019-02-23T21:23:10.990Z,102093.08
2019-02-23T21:25:42.386Z,102082.17
2019-02-23T21:28:13.777Z,102076.82
2019-02-23T21:30:45.204Z,102089.06
2019-02-23T21:33:16.573Z,102090.88
2019-02-23T21:35:47.928Z,102089.81
2019-02-23T21:38:20.318Z,102085.30
2019-02-23T21:40:52.756Z,102084.31
2019-02-23T21:43:24.140Z,102085.80
2019-02-23T21:45:56.015Z,102085.64
2019-02-23T21:48:27.333Z,102085.33
2019-02-23T21:50:58.737Z,102083.33
2019-02-23T21:53:30.137Z,102083.69
2019-02-23T21:56:01.543Z,102084.34
2019-02-23T21:58:32.997Z,102083.59
2019-02-23T22:01:04.384Z,102084.73
2019-02-23T22:03:37.249Z,102082.05
2019-02-23T22:06:08.860Z,102077.61
2019-02-23T22:08:40.162Z,102079.25
2019-02-23T22:11:11.863Z,102083.52
2019-02-23T22:13:43.281Z,102090.22
2019-02-23T22:16:15.071Z,102081.72
2019-02-23T22:18:46.531Z,102087.10
2019-02-23T22:21:17.999Z,102080.53
2019-02-23T22:23:49.455Z,102082.34
2019-02-23T22:26:20.844Z,102083.33
2019-02-23T22:28:52.444Z,102071.02
2019-02-23T22:31:23.868Z,102075.71
2019-02-23T22:33:55.282Z,102075.28
2019-02-23T22:36:26.673Z,102078.89
2019-02-23T22:38:58.057Z,102081.68
2019-02-23T22:41:29.542Z,102082.50
2019-02-23T22:44:00.909Z,102087.92
2019-02-23T22:46:32.415Z,102086.11
2019-02-23T22:49:03.781Z,102090.67
2019-02-23T22:51:35.200Z,102081.98
2019-02-23T22:54:06.589Z,102089.02
2019-02-23T22:56:38.019Z,102086.30
2019-02-23T22:59:09.402Z,102082.80
2019-02-23T23:01:40.826Z,102084.47
2019-02-23T23:04:12.224Z,102076.30
2019-02-23T23:06:43.574Z,102073.67
2019-02-23T23:09:16.635Z,102075.79
2019-02-23T23:11:48.008Z,102087.92
2019-02-23T23:14:19.479Z,102083.77
2019-02-23T23:16:50.908Z,102087.00
2019-02-23T23:19:22.411Z,102086.61
2019-02-23T23:21:53.899Z,102082.70
2019-02-23T23:24:25.259Z,102084.82
2019-02-23T23:26:56.696Z,102082.03
2019-02-23T23:29:28.609Z,102079.51
2019-02-23T23:32:01.060Z,102092.14
2019-02-23T23:34:32.654Z,102084.16
2019-02-23T23:37:03.995Z,102087.70
2019-02-23T23:39:35.417Z,102084.92
2019-02-23T23:42:06.867Z,102082.36
2019-02-23T23:44:38.347Z,102086.61
2019-02-23T23:47:09.740Z,102080.77
2019-02-23T23:49:41.424Z,102078.73
2019-02-23T23:52:12.849Z,102078.57
2019-02-23T23:54:44.353Z,102076.61
2019-02-23T23:57:15.744Z,102065.02
2019-02-23T23:59:47.300Z,102062.16
